sensor_id;sensor_type;location;lat;lon;timestamp;temperature;humidity
76567;DHT22;65428;53.194;6.132;2023-01-10T00:01:53;4.20;98.30
76567;DHT22;65428;53.194;6.132;2023-01-10T00:04:21;4.40;98.40
76567;DHT22;65428;53.194;6.132;2023-01-10T00:06:46;4.20;98.40
76567;DHT22;65428;53.194;6.132;2023-01-10T00:09:12;4.30;98.50
76567;DHT22;65428;53.194;6.132;2023-01-10T00:11:38;4.30;98.40
76567;DHT22;65428;53.194;6.132;2023-01-10T00:14:22;4.40;98.50
76567;DHT22;65428;53.194;6.132;2023-01-10T00:16:47;4.40;98.50
76567;DHT22;65428;53.194;6.132;2023-01-10T00:19:13;4.50;98.50
76567;DHT22;65428;53.194;6.132;2023-01-10T00:21:38;4.60;98.40
76567;DHT22;65428;53.194;6.132;2023-01-10T00:24:05;4.60;98.60
76567;DHT22;65428;53.194;6.132;2023-01-10T00:26:49;4.70;98.70
76567;DHT22;65428;53.194;6.132;2023-01-10T00:29:25;4.80;98.70
76567;DHT22;65428;53.194;6.132;2023-01-10T00:31:52;4.90;98.60
76567;DHT22;65428;53.194;6.132;2023-01-10T00:34:18;5.00;98.70
76567;DHT22;65428;53.194;6.132;2023-01-10T00:36:44;5.00;98.60
76567;DHT22;65428;53.194;6.132;2023-01-10T00:39:11;5.10;98.60
76567;DHT22;65428;53.194;6.132;2023-01-10T00:41:38;5.10;98.50
76567;DHT22;65428;53.194;6.132;2023-01-10T00:44:23;5.10;98.50
76567;DHT22;65428;53.194;6.132;2023-01-10T00:46:48;5.20;98.40
76567;DHT22;65428;53.194;6.132;2023-01-10T00:49:14;5.20;98.20
76567;DHT22;65428;53.194;6.132;2023-01-10T00:51:41;5.30;98.10
76567;DHT22;65428;53.194;6.132;2023-01-10T00:54:11;5.30;98.10
76567;DHT22;65428;53.194;6.132;2023-01-10T00:56:37;5.30;98.00
76567;DHT22;65428;53.194;6.132;2023-01-10T00:59:03;5.30;98.10
76567;DHT22;65428;53.194;6.132;2023-01-10T01:01:29;5.30;98.00
76567;DHT22;65428;53.194;6.132;2023-01-10T01:03:55;5.30;97.70
76567;DHT22;65428;53.194;6.132;2023-01-10T01:06:20;5.30;97.80
76567;DHT22;65428;53.194;6.132;2023-01-10T01:08:46;5.30;97.60
76567;DHT22;65428;53.194;6.132;2023-01-10T01:11:11;5.30;97.60
76567;DHT22;65428;53.194;6.132;2023-01-10T01:13:37;5.40;97.70
76567;DHT22;65428;53.194;6.132;2023-01-10T01:16:03;5.40;97.80
76567;DHT22;65428;53.194;6.132;2023-01-10T01:18:29;5.40;97.90
76567;DHT22;65428;53.194;6.132;2023-01-10T01:20:56;5.40;97.80
76567;DHT22;65428;53.194;6.132;2023-01-10T01:23:23;5.40;97.70
76567;DHT22;65428;53.194;6.132;2023-01-10T01:25:52;5.40;97.60
76567;DHT22;65428;53.194;6.132;2023-01-10T01:28:19;5.40;97.70
76567;DHT22;65428;53.194;6.132;2023-01-10T01:30:45;5.50;97.70
76567;DHT22;65428;53.194;6.132;2023-01-10T01:33:10;5.50;97.90
76567;DHT22;65428;53.194;6.132;2023-01-10T01:35:36;5.50;97.80
76567;DHT22;65428;53.194;6.132;2023-01-10T01:38:02;5.50;97.80
76567;DHT22;65428;53.194;6.132;2023-01-10T01:40:27;5.60;97.90
76567;DHT22;65428;53.194;6.132;2023-01-10T01:42:53;5.70;97.90
76567;DHT22;65428;53.194;6.132;2023-01-10T01:47:50;5.70;98.00
76567;DHT22;65428;53.194;6.132;2023-01-10T01:50:42;5.80;98.00
76567;DHT22;65428;53.194;6.132;2023-01-10T01:53:33;5.80;97.90
76567;DHT22;65428;53.194;6.132;2023-01-10T01:56:04;5.90;97.90
76567;DHT22;65428;53.194;6.132;2023-01-10T01:59:19;5.80;97.80
76567;DHT22;65428;53.194;6.132;2023-01-10T02:01:25;5.90;97.80
76567;DHT22;65428;53.194;6.132;2023-01-10T02:03:57;5.80;97.70
76567;DHT22;65428;53.194;6.132;2023-01-10T02:06:25;5.80;97.70
76567;DHT22;65428;53.194;6.132;2023-01-10T02:08:59;5.80;97.60
76567;DHT22;65428;53.194;6.132;2023-01-10T02:11:28;5.80;97.70
76567;DHT22;65428;53.194;6.132;2023-01-10T02:13:55;5.80;97.70
76567;DHT22;65428;53.194;6.132;2023-01-10T02:16:21;5.80;97.80
76567;DHT22;65428;53.194;6.132;2023-01-10T02:18:47;6.10;97.90
76567;DHT22;65428;53.194;6.132;2023-01-10T02:27:05;6.00;97.80
76567;DHT22;65428;53.194;6.132;2023-01-10T02:35:04;6.00;97.80
76567;DHT22;65428;53.194;6.132;2023-01-10T02:43:19;6.00;97.90
76567;DHT22;65428;53.194;6.132;2023-01-10T02:45:58;6.10;98.00
76567;DHT22;65428;53.194;6.132;2023-01-10T02:48:25;6.10;98.00
76567;DHT22;65428;53.194;6.132;2023-01-10T02:50:55;6.10;98.00
76567;DHT22;65428;53.194;6.132;2023-01-10T02:54:02;6.10;98.10
76567;DHT22;65428;53.194;6.132;2023-01-10T03:02:24;6.20;98.20
76567;DHT22;65428;53.194;6.132;2023-01-10T03:04:57;6.20;98.10
76567;DHT22;65428;53.194;6.132;2023-01-10T03:07:45;6.30;98.20
76567;DHT22;65428;53.194;6.132;2023-01-10T03:10:44;6.30;98.20
76567;DHT22;65428;53.194;6.132;2023-01-10T03:13:17;6.30;98.30
76567;DHT22;65428;53.194;6.132;2023-01-10T03:15:44;6.40;98.20
76567;DHT22;65428;53.194;6.132;2023-01-10T03:18:19;6.30;98.10
76567;DHT22;65428;53.194;6.132;2023-01-10T03:20:46;6.40;98.00
76567;DHT22;65428;53.194;6.132;2023-01-10T03:23:14;6.40;98.00
76567;DHT22;65428;53.194;6.132;2023-01-10T03:25:42;6.40;98.00
76567;DHT22;65428;53.194;6.132;2023-01-10T03:28:16;6.40;97.90
76567;DHT22;65428;53.194;6.132;2023-01-10T03:30:52;6.40;98.00
76567;DHT22;65428;53.194;6.132;2023-01-10T03:33:23;6.40;98.00
76567;DHT22;65428;53.194;6.132;2023-01-10T03:38:40;6.40;97.90
76567;DHT22;65428;53.194;6.132;2023-01-10T03:41:35;6.40;97.80
76567;DHT22;65428;53.194;6.132;2023-01-10T03:44:11;6.40;97.70
76567;DHT22;65428;53.194;6.132;2023-01-10T03:47:24;6.20;97.60
76567;DHT22;65428;53.194;6.132;2023-01-10T03:50:39;6.20;97.70
76567;DHT22;65428;53.194;6.132;2023-01-10T03:52:46;6.20;97.60
76567;DHT22;65428;53.194;6.132;2023-01-10T03:55:17;6.10;97.60
76567;DHT22;65428;53.194;6.132;2023-01-10T03:57:43;6.10;97.70
76567;DHT22;65428;53.194;6.132;2023-01-10T04:00:10;6.00;97.90
76567;DHT22;65428;53.194;6.132;2023-01-10T04:02:36;6.10;97.90
76567;DHT22;65428;53.194;6.132;2023-01-10T04:05:02;6.10;97.80
76567;DHT22;65428;53.194;6.132;2023-01-10T04:07:28;6.10;97.80
76567;DHT22;65428;53.194;6.132;2023-01-10T04:09:53;6.30;97.90
76567;DHT22;65428;53.194;6.132;2023-01-10T04:12:19;6.00;97.80
76567;DHT22;65428;53.194;6.132;2023-01-10T04:14:45;6.00;97.80
76567;DHT22;65428;53.194;6.132;2023-01-10T04:17:12;6.00;97.90
76567;DHT22;65428;53.194;6.132;2023-01-10T04:19:38;6.00;98.00
76567;DHT22;65428;53.194;6.132;2023-01-10T04:22:04;6.10;98.20
76567;DHT22;65428;53.194;6.132;2023-01-10T04:24:30;6.10;98.40
76567;DHT22;65428;53.194;6.132;2023-01-10T04:26:56;6.10;98.40
76567;DHT22;65428;53.194;6.132;2023-01-10T04:29:22;6.10;98.50
76567;DHT22;65428;53.194;6.132;2023-01-10T04:31:47;6.20;98.50
76567;DHT22;65428;53.194;6.132;2023-01-10T04:34:13;6.20;98.50
76567;DHT22;65428;53.194;6.132;2023-01-10T04:36:39;6.20;98.40
76567;DHT22;65428;53.194;6.132;2023-01-10T04:39:05;6.20;98.30
76567;DHT22;65428;53.194;6.132;2023-01-10T04:41:30;6.10;98.20
76567;DHT22;65428;53.194;6.132;2023-01-10T04:43:56;6.10;98.10
76567;DHT22;65428;53.194;6.132;2023-01-10T04:46:21;6.10;98.10
76567;DHT22;65428;53.194;6.132;2023-01-10T04:48:47;6.10;98.20
76567;DHT22;65428;53.194;6.132;2023-01-10T04:51:13;6.10;98.40
76567;DHT22;65428;53.194;6.132;2023-01-10T04:53:38;6.20;98.40
76567;DHT22;65428;53.194;6.132;2023-01-10T04:56:06;6.20;98.40
76567;DHT22;65428;53.194;6.132;2023-01-10T04:58:33;6.20;98.40
76567;DHT22;65428;53.194;6.132;2023-01-10T05:00:59;6.20;98.40
76567;DHT22;65428;53.194;6.132;2023-01-10T05:03:24;6.30;98.40
76567;DHT22;65428;53.194;6.132;2023-01-10T05:05:50;6.30;98.40
76567;DHT22;65428;53.194;6.132;2023-01-10T05:08:15;6.30;98.40
76567;DHT22;65428;53.194;6.132;2023-01-10T05:10:41;6.20;98.30
76567;DHT22;65428;53.194;6.132;2023-01-10T05:13:07;6.20;98.30
76567;DHT22;65428;53.194;6.132;2023-01-10T05:15:32;6.20;98.40
76567;DHT22;65428;53.194;6.132;2023-01-10T05:17:58;6.50;98.50
76567;DHT22;65428;53.194;6.132;2023-01-10T05:20:24;6.30;98.90
76567;DHT22;65428;53.194;6.132;2023-01-10T05:22:50;6.30;98.90
76567;DHT22;65428;53.194;6.132;2023-01-10T05:25:15;6.30;98.60
76567;DHT22;65428;53.194;6.132;2023-01-10T05:27:41;6.50;98.60
76567;DHT22;65428;53.194;6.132;2023-01-10T05:30:10;6.20;98.40
76567;DHT22;65428;53.194;6.132;2023-01-10T05:32:35;6.30;98.40
76567;DHT22;65428;53.194;6.132;2023-01-10T05:35:01;6.20;98.40
76567;DHT22;65428;53.194;6.132;2023-01-10T05:37:27;6.20;98.30
76567;DHT22;65428;53.194;6.132;2023-01-10T05:39:52;6.20;98.30
76567;DHT22;65428;53.194;6.132;2023-01-10T05:42:18;6.20;98.40
76567;DHT22;65428;53.194;6.132;2023-01-10T05:44:43;6.20;98.40
76567;DHT22;65428;53.194;6.132;2023-01-10T05:47:09;6.20;98.50
76567;DHT22;65428;53.194;6.132;2023-01-10T05:49:35;6.20;98.50
76567;DHT22;65428;53.194;6.132;2023-01-10T05:52:00;6.20;98.40
76567;DHT22;65428;53.194;6.132;2023-01-10T05:54:26;6.20;98.40
76567;DHT22;65428;53.194;6.132;2023-01-10T05:56:54;6.30;98.40
76567;DHT22;65428;53.194;6.132;2023-01-10T05:59:20;6.10;98.40
76567;DHT22;65428;53.194;6.132;2023-01-10T06:01:45;6.20;98.40
76567;DHT22;65428;53.194;6.132;2023-01-10T06:04:11;6.30;98.40
76567;DHT22;65428;53.194;6.132;2023-01-10T06:06:36;6.30;98.40
76567;DHT22;65428;53.194;6.132;2023-01-10T06:09:02;6.20;98.40
76567;DHT22;65428;53.194;6.132;2023-01-10T06:11:27;6.20;98.30
76567;DHT22;65428;53.194;6.132;2023-01-10T06:13:57;6.20;98.20
76567;DHT22;65428;53.194;6.132;2023-01-10T06:16:24;6.10;98.10
76567;DHT22;65428;53.194;6.132;2023-01-10T06:18:49;6.00;97.80
76567;DHT22;65428;53.194;6.132;2023-01-10T06:21:15;5.90;97.60
76567;DHT22;65428;53.194;6.132;2023-01-10T06:23:41;5.80;97.60
76567;DHT22;65428;53.194;6.132;2023-01-10T06:26:06;5.70;97.60
76567;DHT22;65428;53.194;6.132;2023-01-10T06:28:32;5.60;97.70
76567;DHT22;65428;53.194;6.132;2023-01-10T06:30:58;5.50;97.80
76567;DHT22;65428;53.194;6.132;2023-01-10T06:33:23;5.50;97.90
76567;DHT22;65428;53.194;6.132;2023-01-10T06:35:49;5.40;98.10
76567;DHT22;65428;53.194;6.132;2023-01-10T06:38:15;5.40;98.10
76567;DHT22;65428;53.194;6.132;2023-01-10T06:40:40;5.40;98.20
76567;DHT22;65428;53.194;6.132;2023-01-10T06:43:06;5.30;98.20
76567;DHT22;65428;53.194;6.132;2023-01-10T06:45:32;5.40;98.50
76567;DHT22;65428;53.194;6.132;2023-01-10T06:47:57;5.40;98.70
76567;DHT22;65428;53.194;6.132;2023-01-10T06:50:23;5.40;98.70
76567;DHT22;65428;53.194;6.132;2023-01-10T06:52:56;5.40;98.70
76567;DHT22;65428;53.194;6.132;2023-01-10T06:55:22;5.40;98.70
76567;DHT22;65428;53.194;6.132;2023-01-10T06:57:48;5.50;98.80
76567;DHT22;65428;53.194;6.132;2023-01-10T07:00:14;5.50;98.80
76567;DHT22;65428;53.194;6.132;2023-01-10T07:02:39;5.50;98.80
76567;DHT22;65428;53.194;6.132;2023-01-10T07:05:05;5.60;98.90
76567;DHT22;65428;53.194;6.132;2023-01-10T07:07:31;5.70;98.90
76567;DHT22;65428;53.194;6.132;2023-01-10T07:09:56;5.70;98.90
76567;DHT22;65428;53.194;6.132;2023-01-10T07:12:24;5.70;98.80
76567;DHT22;65428;53.194;6.132;2023-01-10T07:14:49;5.70;98.70
76567;DHT22;65428;53.194;6.132;2023-01-10T07:17:15;5.70;98.60
76567;DHT22;65428;53.194;6.132;2023-01-10T07:19:41;5.70;98.70
76567;DHT22;65428;53.194;6.132;2023-01-10T07:22:06;5.90;98.70
76567;DHT22;65428;53.194;6.132;2023-01-10T07:24:32;5.80;98.70
76567;DHT22;65428;53.194;6.132;2023-01-10T07:26:58;5.80;98.70
76567;DHT22;65428;53.194;6.132;2023-01-10T07:29:24;6.20;98.70
76567;DHT22;65428;53.194;6.132;2023-01-10T07:31:50;5.80;98.60
76567;DHT22;65428;53.194;6.132;2023-01-10T07:34:16;5.70;98.50
76567;DHT22;65428;53.194;6.132;2023-01-10T07:36:42;5.80;98.50
76567;DHT22;65428;53.194;6.132;2023-01-10T07:39:07;5.90;98.60
76567;DHT22;65428;53.194;6.132;2023-01-10T07:41:33;6.50;98.80
76567;DHT22;65428;53.194;6.132;2023-01-10T07:43:59;5.70;98.60
76567;DHT22;65428;53.194;6.132;2023-01-10T07:46:24;5.90;98.60
76567;DHT22;65428;53.194;6.132;2023-01-10T07:48:50;6.00;98.60
76567;DHT22;65428;53.194;6.132;2023-01-10T07:51:16;5.90;98.50
76567;DHT22;65428;53.194;6.132;2023-01-10T07:53:42;5.90;98.40
76567;DHT22;65428;53.194;6.132;2023-01-10T07:56:08;5.90;98.50
76567;DHT22;65428;53.194;6.132;2023-01-10T07:58:33;5.90;98.40
76567;DHT22;65428;53.194;6.132;2023-01-10T08:01:01;5.90;98.60
76567;DHT22;65428;53.194;6.132;2023-01-10T08:03:27;5.80;98.40
76567;DHT22;65428;53.194;6.132;2023-01-10T08:06:05;5.90;98.30
76567;DHT22;65428;53.194;6.132;2023-01-10T08:08:32;5.90;98.40
76567;DHT22;65428;53.194;6.132;2023-01-10T08:10:59;5.90;98.30
76567;DHT22;65428;53.194;6.132;2023-01-10T08:13:25;5.90;98.40
76567;DHT22;65428;53.194;6.132;2023-01-10T08:15:51;5.90;98.20
76567;DHT22;65428;53.194;6.132;2023-01-10T08:18:18;5.90;98.10
76567;DHT22;65428;53.194;6.132;2023-01-10T08:20:44;5.80;98.00
76567;DHT22;65428;53.194;6.132;2023-01-10T08:23:12;5.80;98.00
76567;DHT22;65428;53.194;6.132;2023-01-10T08:25:38;6.10;98.10
76567;DHT22;65428;53.194;6.132;2023-01-10T08:28:04;6.00;98.10
76567;DHT22;65428;53.194;6.132;2023-01-10T08:30:29;5.70;98.00
76567;DHT22;65428;53.194;6.132;2023-01-10T08:32:55;5.80;98.00
76567;DHT22;65428;53.194;6.132;2023-01-10T08:35:21;5.70;98.00
76567;DHT22;65428;53.194;6.132;2023-01-10T08:37:46;5.70;98.00
76567;DHT22;65428;53.194;6.132;2023-01-10T08:40:12;5.80;98.00
76567;DHT22;65428;53.194;6.132;2023-01-10T08:42:37;5.80;97.90
76567;DHT22;65428;53.194;6.132;2023-01-10T08:45:04;5.80;97.90
76567;DHT22;65428;53.194;6.132;2023-01-10T08:47:29;5.90;97.80
76567;DHT22;65428;53.194;6.132;2023-01-10T08:49:55;5.90;97.80
76567;DHT22;65428;53.194;6.132;2023-01-10T08:52:20;5.90;97.70
76567;DHT22;65428;53.194;6.132;2023-01-10T08:54:46;5.90;97.70
76567;DHT22;65428;53.194;6.132;2023-01-10T08:57:12;6.00;97.70
76567;DHT22;65428;53.194;6.132;2023-01-10T08:59:38;6.00;97.60
76567;DHT22;65428;53.194;6.132;2023-01-10T09:02:04;6.10;97.50
76567;DHT22;65428;53.194;6.132;2023-01-10T09:04:30;6.20;97.60
76567;DHT22;65428;53.194;6.132;2023-01-10T09:06:56;6.30;97.50
76567;DHT22;65428;53.194;6.132;2023-01-10T09:09:21;6.50;97.30
76567;DHT22;65428;53.194;6.132;2023-01-10T09:11:47;6.40;97.00
76567;DHT22;65428;53.194;6.132;2023-01-10T09:14:13;6.50;96.90
76567;DHT22;65428;53.194;6.132;2023-01-10T09:16:40;6.50;96.80
76567;DHT22;65428;53.194;6.132;2023-01-10T09:19:05;6.50;96.70
76567;DHT22;65428;53.194;6.132;2023-01-10T09:21:31;6.50;96.50
76567;DHT22;65428;53.194;6.132;2023-01-10T09:23:57;6.50;96.30
76567;DHT22;65428;53.194;6.132;2023-01-10T09:26:22;6.50;96.30
76567;DHT22;65428;53.194;6.132;2023-01-10T09:28:48;6.70;96.10
76567;DHT22;65428;53.194;6.132;2023-01-10T09:31:14;6.50;96.10
76567;DHT22;65428;53.194;6.132;2023-01-10T09:33:40;6.60;96.00
76567;DHT22;65428;53.194;6.132;2023-01-10T09:36:06;6.60;95.70
76567;DHT22;65428;53.194;6.132;2023-01-10T09:38:33;6.70;96.10
76567;DHT22;65428;53.194;6.132;2023-01-10T09:43:36;6.80;95.90
76567;DHT22;65428;53.194;6.132;2023-01-10T09:46:14;6.80;95.50
76567;DHT22;65428;53.194;6.132;2023-01-10T09:51:38;7.00;95.90
76567;DHT22;65428;53.194;6.132;2023-01-10T09:54:10;7.00;95.60
76567;DHT22;65428;53.194;6.132;2023-01-10T09:56:38;7.10;95.70
76567;DHT22;65428;53.194;6.132;2023-01-10T09:59:05;7.10;95.50
76567;DHT22;65428;53.194;6.132;2023-01-10T10:01:34;7.20;95.60
76567;DHT22;65428;53.194;6.132;2023-01-10T10:04:18;7.30;95.60
76567;DHT22;65428;53.194;6.132;2023-01-10T10:06:51;7.30;95.80
76567;DHT22;65428;53.194;6.132;2023-01-10T10:09:29;7.30;95.60
76567;DHT22;65428;53.194;6.132;2023-01-10T10:12:08;7.30;95.40
76567;DHT22;65428;53.194;6.132;2023-01-10T10:19:55;7.40;95.40
76567;DHT22;65428;53.194;6.132;2023-01-10T10:22:46;7.40;95.60
76567;DHT22;65428;53.194;6.132;2023-01-10T10:27:53;7.50;95.50
76567;DHT22;65428;53.194;6.132;2023-01-10T10:30:32;7.50;95.30
76567;DHT22;65428;53.194;6.132;2023-01-10T10:33:28;7.50;95.30
76567;DHT22;65428;53.194;6.132;2023-01-10T10:36:00;7.50;95.10
76567;DHT22;65428;53.194;6.132;2023-01-10T10:38:30;7.50;95.10
76567;DHT22;65428;53.194;6.132;2023-01-10T10:40:57;7.50;95.20
76567;DHT22;65428;53.194;6.132;2023-01-10T10:43:29;7.50;95.10
76567;DHT22;65428;53.194;6.132;2023-01-10T10:46:08;7.50;95.10
76567;DHT22;65428;53.194;6.132;2023-01-10T10:48:56;7.50;95.20
76567;DHT22;65428;53.194;6.132;2023-01-10T10:54:01;7.60;95.30
76567;DHT22;65428;53.194;6.132;2023-01-10T10:56:27;7.50;95.30
76567;DHT22;65428;53.194;6.132;2023-01-10T10:58:55;7.60;95.20
76567;DHT22;65428;53.194;6.132;2023-01-10T11:01:22;7.60;95.10
76567;DHT22;65428;53.194;6.132;2023-01-10T11:03:51;7.60;95.20
76567;DHT22;65428;53.194;6.132;2023-01-10T11:06:19;7.60;95.00
76567;DHT22;65428;53.194;6.132;2023-01-10T11:08:47;7.60;95.10
76567;DHT22;65428;53.194;6.132;2023-01-10T11:11:20;7.80;95.00
76567;DHT22;65428;53.194;6.132;2023-01-10T11:13:54;7.70;94.90
76567;DHT22;65428;53.194;6.132;2023-01-10T11:16:32;7.60;94.90
76567;DHT22;65428;53.194;6.132;2023-01-10T11:21:32;7.60;94.70
76567;DHT22;65428;53.194;6.132;2023-01-10T11:23:58;7.70;94.70
76567;DHT22;65428;53.194;6.132;2023-01-10T11:26:35;7.60;94.70
76567;DHT22;65428;53.194;6.132;2023-01-10T11:29:08;7.70;94.70
76567;DHT22;65428;53.194;6.132;2023-01-10T11:31:39;7.60;94.70
76567;DHT22;65428;53.194;6.132;2023-01-10T11:34:24;7.60;94.60
76567;DHT22;65428;53.194;6.132;2023-01-10T11:37:01;7.60;94.70
76567;DHT22;65428;53.194;6.132;2023-01-10T11:39:28;7.60;94.60
76567;DHT22;65428;53.194;6.132;2023-01-10T11:41:54;7.60;94.80
76567;DHT22;65428;53.194;6.132;2023-01-10T11:44:27;7.60;94.70
76567;DHT22;65428;53.194;6.132;2023-01-10T11:46:55;7.60;95.00
76567;DHT22;65428;53.194;6.132;2023-01-10T11:49:31;7.70;94.70
76567;DHT22;65428;53.194;6.132;2023-01-10T11:52:03;7.60;94.50
76567;DHT22;65428;53.194;6.132;2023-01-10T11:54:30;7.60;94.40
76567;DHT22;65428;53.194;6.132;2023-01-10T11:57:07;7.70;94.40
76567;DHT22;65428;53.194;6.132;2023-01-10T11:59:34;7.60;94.50
76567;DHT22;65428;53.194;6.132;2023-01-10T12:02:03;7.60;94.50
76567;DHT22;65428;53.194;6.132;2023-01-10T12:04:41;7.50;94.30
76567;DHT22;65428;53.194;6.132;2023-01-10T12:07:10;7.50;94.50
76567;DHT22;65428;53.194;6.132;2023-01-10T12:12:24;7.40;94.40
76567;DHT22;65428;53.194;6.132;2023-01-10T12:14:51;7.40;94.30
76567;DHT22;65428;53.194;6.132;2023-01-10T12:17:29;7.40;94.50
76567;DHT22;65428;53.194;6.132;2023-01-10T12:19:58;7.40;94.30
76567;DHT22;65428;53.194;6.132;2023-01-10T12:22:45;7.30;94.40
76567;DHT22;65428;53.194;6.132;2023-01-10T12:25:22;7.30;94.30
76567;DHT22;65428;53.194;6.132;2023-01-10T12:27:49;7.30;94.50
76567;DHT22;65428;53.194;6.132;2023-01-10T12:32:55;7.30;94.30
76567;DHT22;65428;53.194;6.132;2023-01-10T12:35:44;7.30;94.10
76567;DHT22;65428;53.194;6.132;2023-01-10T12:41:21;7.20;94.30
76567;DHT22;65428;53.194;6.132;2023-01-10T12:44:15;7.20;94.20
76567;DHT22;65428;53.194;6.132;2023-01-10T12:46:54;7.20;94.10
76567;DHT22;65428;53.194;6.132;2023-01-10T12:49:23;7.20;94.10
76567;DHT22;65428;53.194;6.132;2023-01-10T12:51:52;7.20;94.30
76567;DHT22;65428;53.194;6.132;2023-01-10T12:54:22;7.20;94.20
76567;DHT22;65428;53.194;6.132;2023-01-10T12:56:49;7.30;94.20
76567;DHT22;65428;53.194;6.132;2023-01-10T12:59:26;7.10;94.20
76567;DHT22;65428;53.194;6.132;2023-01-10T13:01:56;7.20;94.20
76567;DHT22;65428;53.194;6.132;2023-01-10T13:04:26;7.40;94.30
76567;DHT22;65428;53.194;6.132;2023-01-10T13:06:53;7.20;94.10
76567;DHT22;65428;53.194;6.132;2023-01-10T13:09:21;7.20;94.00
76567;DHT22;65428;53.194;6.132;2023-01-10T13:14:16;7.10;94.00
76567;DHT22;65428;53.194;6.132;2023-01-10T13:16:53;7.00;94.10
76567;DHT22;65428;53.194;6.132;2023-01-10T13:19:26;7.10;93.90
76567;DHT22;65428;53.194;6.132;2023-01-10T13:22:19;7.10;93.90
76567;DHT22;65428;53.194;6.132;2023-01-10T13:24:59;7.00;93.50
76567;DHT22;65428;53.194;6.132;2023-01-10T13:27:33;7.30;93.40
76567;DHT22;65428;53.194;6.132;2023-01-10T13:30:01;7.00;93.60
76567;DHT22;65428;53.194;6.132;2023-01-10T13:32:31;7.00;93.20
76567;DHT22;65428;53.194;6.132;2023-01-10T13:35:16;7.00;93.20
76567;DHT22;65428;53.194;6.132;2023-01-10T13:37:49;7.00;93.50
76567;DHT22;65428;53.194;6.132;2023-01-10T13:40:26;7.00;93.40
76567;DHT22;65428;53.194;6.132;2023-01-10T13:43:29;7.00;93.60
76567;DHT22;65428;53.194;6.132;2023-01-10T13:51:22;7.00;93.60
76567;DHT22;65428;53.194;6.132;2023-01-10T13:56:38;6.90;93.50
76567;DHT22;65428;53.194;6.132;2023-01-10T14:02:22;6.90;93.50
76567;DHT22;65428;53.194;6.132;2023-01-10T14:05:05;6.90;93.40
76567;DHT22;65428;53.194;6.132;2023-01-10T14:07:43;6.90;93.40
76567;DHT22;65428;53.194;6.132;2023-01-10T14:10:28;6.90;93.40
76567;DHT22;65428;53.194;6.132;2023-01-10T14:13:01;6.90;93.40
76567;DHT22;65428;53.194;6.132;2023-01-10T14:15:51;6.90;93.40
76567;DHT22;65428;53.194;6.132;2023-01-10T14:18:22;6.90;93.30
76567;DHT22;65428;53.194;6.132;2023-01-10T14:21:00;6.90;93.30
76567;DHT22;65428;53.194;6.132;2023-01-10T14:23:48;6.90;93.20
76567;DHT22;65428;53.194;6.132;2023-01-10T14:26:34;6.90;93.30
76567;DHT22;65428;53.194;6.132;2023-01-10T14:29:09;6.80;93.20
76567;DHT22;65428;53.194;6.132;2023-01-10T14:31:42;6.80;93.10
76567;DHT22;65428;53.194;6.132;2023-01-10T14:34:24;6.90;93.10
76567;DHT22;65428;53.194;6.132;2023-01-10T14:37:00;6.90;92.90
76567;DHT22;65428;53.194;6.132;2023-01-10T14:39:27;6.90;93.10
76567;DHT22;65428;53.194;6.132;2023-01-10T14:41:57;6.90;93.00
76567;DHT22;65428;53.194;6.132;2023-01-10T14:44:31;6.90;93.10
76567;DHT22;65428;53.194;6.132;2023-01-10T14:47:00;6.90;93.10
76567;DHT22;65428;53.194;6.132;2023-01-10T14:49:32;7.00;93.10
76567;DHT22;65428;53.194;6.132;2023-01-10T14:54:40;6.90;93.20
76567;DHT22;65428;53.194;6.132;2023-01-10T14:57:20;6.90;93.20
76567;DHT22;65428;53.194;6.132;2023-01-10T14:59:46;6.90;93.20
76567;DHT22;65428;53.194;6.132;2023-01-10T15:02:21;7.00;93.20
76567;DHT22;65428;53.194;6.132;2023-01-10T15:04:55;6.80;93.10
76567;DHT22;65428;53.194;6.132;2023-01-10T15:07:22;6.80;93.00
76567;DHT22;65428;53.194;6.132;2023-01-10T15:09:55;6.80;92.90
76567;DHT22;65428;53.194;6.132;2023-01-10T15:12:24;6.90;92.90
76567;DHT22;65428;53.194;6.132;2023-01-10T15:15:05;6.80;92.80
76567;DHT22;65428;53.194;6.132;2023-01-10T15:17:33;6.90;93.00
76567;DHT22;65428;53.194;6.132;2023-01-10T15:20:00;6.90;92.90
76567;DHT22;65428;53.194;6.132;2023-01-10T15:22:30;6.90;93.00
76567;DHT22;65428;53.194;6.132;2023-01-10T15:25:03;6.90;92.90
76567;DHT22;65428;53.194;6.132;2023-01-10T15:27:30;6.90;92.90
76567;DHT22;65428;53.194;6.132;2023-01-10T15:29:57;6.90;92.90
76567;DHT22;65428;53.194;6.132;2023-01-10T15:32:32;6.90;93.10
76567;DHT22;65428;53.194;6.132;2023-01-10T15:34:58;6.90;93.00
76567;DHT22;65428;53.194;6.132;2023-01-10T15:37:27;6.90;93.10
76567;DHT22;65428;53.194;6.132;2023-01-10T15:40:04;6.90;93.10
76567;DHT22;65428;53.194;6.132;2023-01-10T15:42:31;6.90;93.30
76567;DHT22;65428;53.194;6.132;2023-01-10T15:44:57;6.90;93.50
76567;DHT22;65428;53.194;6.132;2023-01-10T15:47:51;6.90;93.90
76567;DHT22;65428;53.194;6.132;2023-01-10T15:50:32;6.90;94.00
76567;DHT22;65428;53.194;6.132;2023-01-10T15:53:08;6.80;94.40
76567;DHT22;65428;53.194;6.132;2023-01-10T15:58:20;6.70;94.80
76567;DHT22;65428;53.194;6.132;2023-01-10T16:00:49;6.60;95.00
76567;DHT22;65428;53.194;6.132;2023-01-10T16:03:33;6.60;95.30
76567;DHT22;65428;53.194;6.132;2023-01-10T16:05:59;6.60;95.60
76567;DHT22;65428;53.194;6.132;2023-01-10T16:08:36;6.50;95.70
76567;DHT22;65428;53.194;6.132;2023-01-10T16:11:06;6.50;95.90
76567;DHT22;65428;53.194;6.132;2023-01-10T16:13:32;6.50;96.10
76567;DHT22;65428;53.194;6.132;2023-01-10T16:16:00;6.40;96.20
76567;DHT22;65428;53.194;6.132;2023-01-10T16:18:29;6.40;96.30
76567;DHT22;65428;53.194;6.132;2023-01-10T16:20:56;6.40;96.40
76567;DHT22;65428;53.194;6.132;2023-01-10T16:23:27;6.40;96.60
76567;DHT22;65428;53.194;6.132;2023-01-10T16:25:57;6.30;96.70
76567;DHT22;65428;53.194;6.132;2023-01-10T16:28:23;6.50;97.00
76567;DHT22;65428;53.194;6.132;2023-01-10T16:30:52;6.00;97.10
76567;DHT22;65428;53.194;6.132;2023-01-10T16:33:19;6.20;97.20
76567;DHT22;65428;53.194;6.132;2023-01-10T16:35:50;6.20;97.30
76567;DHT22;65428;53.194;6.132;2023-01-10T16:38:17;6.30;97.40
76567;DHT22;65428;53.194;6.132;2023-01-10T16:40:49;6.10;97.40
76567;DHT22;65428;53.194;6.132;2023-01-10T16:43:15;6.50;97.50
76567;DHT22;65428;53.194;6.132;2023-01-10T16:45:56;6.10;97.50
76567;DHT22;65428;53.194;6.132;2023-01-10T16:48:27;6.10;97.50
76567;DHT22;65428;53.194;6.132;2023-01-10T16:50:54;6.10;97.50
76567;DHT22;65428;53.194;6.132;2023-01-10T16:53:20;6.10;97.50
76567;DHT22;65428;53.194;6.132;2023-01-10T16:55:51;6.10;97.40
76567;DHT22;65428;53.194;6.132;2023-01-10T16:58:18;6.10;97.50
76567;DHT22;65428;53.194;6.132;2023-01-10T17:00:47;6.10;97.50
76567;DHT22;65428;53.194;6.132;2023-01-10T17:03:24;6.10;97.50
76567;DHT22;65428;53.194;6.132;2023-01-10T17:05:50;6.10;97.60
76567;DHT22;65428;53.194;6.132;2023-01-10T17:08:23;6.10;97.90
76567;DHT22;65428;53.194;6.132;2023-01-10T17:10:52;6.10;97.70
76567;DHT22;65428;53.194;6.132;2023-01-10T17:13:24;6.20;97.80
76567;DHT22;65428;53.194;6.132;2023-01-10T17:15:50;6.20;97.80
76567;DHT22;65428;53.194;6.132;2023-01-10T17:18:16;6.40;97.90